sensor_id;sensor_type;location;lat;lon;timestamp;pressure;altitude;pressure_sealevel;temperature;humidity
70815;BME280;58428;49.478;10.986;2023-01-30T00:00:55;98987.25;;;-2.07;100.00
70815;BME280;58428;49.478;10.986;2023-01-30T00:03:22;98970.06;;;-2.04;100.00
70815;BME280;58428;49.478;10.986;2023-01-30T00:05:48;98979.88;;;-2.05;100.00
70815;BME280;58428;49.478;10.986;2023-01-30T00:08:15;98968.78;;;-2.02;100.00
70815;BME280;58428;49.478;10.986;2023-01-30T00:10:41;98965.13;;;-2.01;100.00
70815;BME280;58428;49.478;10.986;2023-01-30T00:13:08;98956.81;;;-2.04;100.00
70815;BME280;58428;49.478;10.986;2023-01-30T00:15:35;98935.97;;;-2.01;100.00
70815;BME280;58428;49.478;10.986;2023-01-30T00:18:00;98929.59;;;-2.00;100.00
70815;BME280;58428;49.478;10.986;2023-01-30T00:20:26;98927.78;;;-1.99;100.00
70815;BME280;58428;49.478;10.986;2023-01-30T00:22:52;98928.25;;;-2.02;100.00
70815;BME280;58428;49.478;10.986;2023-01-30T00:25:17;98938.28;;;-2.04;100.00
70815;BME280;58428;49.478;10.986;2023-01-30T00:27:44;98931.91;;;-2.03;100.00
70815;BME280;58428;49.478;10.986;2023-01-30T00:30:09;98936.19;;;-2.02;100.00
70815;BME280;58428;49.478;10.986;2023-01-30T00:32:35;98936.19;;;-2.02;100.00
70815;BME280;58428;49.478;10.986;2023-01-30T00:35:02;98943.91;;;-2.01;100.00
70815;BME280;58428;49.478;10.986;2023-01-30T00:37:27;98942.84;;;-2.00;100.00
70815;BME280;58428;49.478;10.986;2023-01-30T00:39:53;98950.81;;;-2.00;100.00
70815;BME280;58428;49.478;10.986;2023-01-30T00:42:19;98963.72;;;-2.03;100.00
70815;BME280;58428;49.478;10.986;2023-01-30T00:45:03;98973.66;;;-1.99;100.00
70815;BME280;58428;49.478;10.986;2023-01-30T00:47:50;98975.38;;;-1.93;100.00
70815;BME280;58428;49.478;10.986;2023-01-30T00:50:15;98979.97;;;-1.88;100.00
70815;BME280;58428;49.478;10.986;2023-01-30T00:52:41;98989.63;;;-1.83;100.00
70815;BME280;58428;49.478;10.986;2023-01-30T00:55:07;98992.06;;;-1.81;100.00
70815;BME280;58428;49.478;10.986;2023-01-30T00:57:32;98994.44;;;-1.68;100.00
70815;BME280;58428;49.478;10.986;2023-01-30T00:59:58;99004.50;;;-1.70;100.00
70815;BME280;58428;49.478;10.986;2023-01-30T01:02:23;99002.16;;;-1.67;100.00
70815;BME280;58428;49.478;10.986;2023-01-30T01:04:52;98992.19;;;-1.48;100.00
70815;BME280;58428;49.478;10.986;2023-01-30T01:07:17;98984.50;;;-1.34;100.00
70815;BME280;58428;49.478;10.986;2023-01-30T01:09:43;98989.88;;;-1.17;100.00
70815;BME280;58428;49.478;10.986;2023-01-30T01:12:08;98984.25;;;-1.05;100.00
70815;BME280;58428;49.478;10.986;2023-01-30T01:14:35;98974.06;;;-0.96;100.00
70815;BME280;58428;49.478;10.986;2023-01-30T01:17:02;98975.38;;;-0.99;100.00
70815;BME280;58428;49.478;10.986;2023-01-30T01:19:32;98979.94;;;-0.94;100.00
70815;BME280;58428;49.478;10.986;2023-01-30T01:21:58;98974.00;;;-0.85;100.00
70815;BME280;58428;49.478;10.986;2023-01-30T01:24:24;98968.06;;;-0.75;100.00
70815;BME280;58428;49.478;10.986;2023-01-30T01:26:50;98958.25;;;-0.75;100.00
70815;BME280;58428;49.478;10.986;2023-01-30T01:29:16;98977.16;;;-0.72;100.00
70815;BME280;58428;49.478;10.986;2023-01-30T01:31:42;98967.16;;;-0.65;100.00
70815;BME280;58428;49.478;10.986;2023-01-30T01:34:10;98950.25;;;-0.59;100.00
70815;BME280;58428;49.478;10.986;2023-01-30T01:36:38;98945.94;;;-0.48;100.00
70815;BME280;58428;49.478;10.986;2023-01-30T01:39:04;98934.88;;;-0.40;100.00
70815;BME280;58428;49.478;10.986;2023-01-30T01:41:33;98944.13;;;-0.43;100.00
70815;BME280;58428;49.478;10.986;2023-01-30T01:46:53;98914.38;;;-0.24;100.00
70815;BME280;58428;49.478;10.986;2023-01-30T01:49:31;98904.63;;;-0.18;100.00
70815;BME280;58428;49.478;10.986;2023-01-30T01:52:16;98902.19;;;-0.20;100.00
70815;BME280;58428;49.478;10.986;2023-01-30T01:54:46;98909.69;;;-0.17;100.00
70815;BME280;58428;49.478;10.986;2023-01-30T01:57:18;98909.03;;;-0.07;100.00
70815;BME280;58428;49.478;10.986;2023-01-30T01:59:59;98902.19;;;-0.20;100.00
70815;BME280;58428;49.478;10.986;2023-01-30T02:02:26;98900.09;;;-0.18;100.00
70815;BME280;58428;49.478;10.986;2023-01-30T02:04:54;98875.94;;;-0.16;100.00
70815;BME280;58428;49.478;10.986;2023-01-30T02:08:09;98872.03;;;-0.09;100.00
70815;BME280;58428;49.478;10.986;2023-01-30T02:10:46;98878.47;;;-0.05;100.00
70815;BME280;58428;49.478;10.986;2023-01-30T02:13:18;98853.91;;;-0.12;100.00
70815;BME280;58428;49.478;10.986;2023-01-30T02:15:47;98843.28;;;-0.12;100.00
70815;BME280;58428;49.478;10.986;2023-01-30T02:18:15;98843.59;;;-0.08;100.00
70815;BME280;58428;49.478;10.986;2023-01-30T02:27:14;98829.41;;;0.07;100.00
70815;BME280;58428;49.478;10.986;2023-01-30T02:32:33;98779.81;;;0.18;100.00
70815;BME280;58428;49.478;10.986;2023-01-30T02:35:26;98784.59;;;0.21;100.00
70815;BME280;58428;49.478;10.986;2023-01-30T02:38:14;98781.19;;;0.25;100.00
70815;BME280;58428;49.478;10.986;2023-01-30T02:41:02;98794.00;;;0.28;100.00
70815;BME280;58428;49.478;10.986;2023-01-30T02:49:31;98809.56;;;0.41;100.00
70815;BME280;58428;49.478;10.986;2023-01-30T02:52:01;98798.41;;;0.44;100.00
70815;BME280;58428;49.478;10.986;2023-01-30T02:54:27;98798.91;;;0.41;100.00
70815;BME280;58428;49.478;10.986;2023-01-30T02:56:57;98799.19;;;0.44;100.00
70815;BME280;58428;49.478;10.986;2023-01-30T02:59:32;98788.31;;;0.46;100.00
70815;BME280;58428;49.478;10.986;2023-01-30T03:10:42;98761.94;;;0.44;100.00
70815;BME280;58428;49.478;10.986;2023-01-30T03:15:51;98748.97;;;0.53;100.00
70815;BME280;58428;49.478;10.986;2023-01-30T03:18:18;98742.03;;;0.52;100.00
70815;BME280;58428;49.478;10.986;2023-01-30T03:20:44;98736.22;;;0.55;100.00
70815;BME280;58428;49.478;10.986;2023-01-30T03:23:11;98730.06;;;0.49;100.00
70815;BME280;58428;49.478;10.986;2023-01-30T03:25:39;98716.69;;;0.44;100.00
70815;BME280;58428;49.478;10.986;2023-01-30T03:28:08;98715.88;;;0.39;100.00
70815;BME280;58428;49.478;10.986;2023-01-30T03:30:35;98708.94;;;0.38;100.00
70815;BME280;58428;49.478;10.986;2023-01-30T03:33:02;98713.47;;;0.42;100.00
70815;BME280;58428;49.478;10.986;2023-01-30T03:35:28;98714.63;;;0.51;100.00
70815;BME280;58428;49.478;10.986;2023-01-30T03:37:53;98721.28;;;0.49;100.00
70815;BME280;58428;49.478;10.986;2023-01-30T03:40:19;98717.53;;;0.50;100.00
70815;BME280;58428;49.478;10.986;2023-01-30T03:42:44;98725.81;;;0.53;100.00
70815;BME280;58428;49.478;10.986;2023-01-30T03:45:15;98722.66;;;0.56;100.00
70815;BME280;58428;49.478;10.986;2023-01-30T03:47:41;98719.78;;;0.63;100.00
70815;BME280;58428;49.478;10.986;2023-01-30T03:50:07;98704.09;;;0.66;100.00
70815;BME280;58428;49.478;10.986;2023-01-30T03:52:34;98715.00;;;0.65;100.00
70815;BME280;58428;49.478;10.986;2023-01-30T03:55:02;98705.47;;;0.73;100.00
70815;BME280;58428;49.478;10.986;2023-01-30T03:57:27;98707.88;;;0.75;100.00
70815;BME280;58428;49.478;10.986;2023-01-30T03:59:54;98699.63;;;0.76;100.00
70815;BME280;58428;49.478;10.986;2023-01-30T04:02:19;98707.63;;;0.76;100.00
70815;BME280;58428;49.478;10.986;2023-01-30T04:04:48;98719.91;;;0.77;100.00
70815;BME280;58428;49.478;10.986;2023-01-30T04:07:14;98723.66;;;0.81;100.00
70815;BME280;58428;49.478;10.986;2023-01-30T04:09:40;98724.47;;;0.87;100.00
70815;BME280;58428;49.478;10.986;2023-01-30T04:12:12;98716.41;;;0.77;100.00
70815;BME280;58428;49.478;10.986;2023-01-30T04:14:44;98716.47;;;0.82;100.00
70815;BME280;58428;49.478;10.986;2023-01-30T04:17:14;98717.22;;;0.77;100.00
70815;BME280;58428;49.478;10.986;2023-01-30T04:19:39;98721.19;;;0.75;100.00
70815;BME280;58428;49.478;10.986;2023-01-30T04:22:04;98721.97;;;0.75;100.00
70815;BME280;58428;49.478;10.986;2023-01-30T04:24:35;98720.41;;;0.74;100.00
70815;BME280;58428;49.478;10.986;2023-01-30T04:27:02;98720.69;;;0.78;100.00
70815;BME280;58428;49.478;10.986;2023-01-30T04:29:28;98721.78;;;0.82;100.00
70815;BME280;58428;49.478;10.986;2023-01-30T04:31:53;98718.28;;;0.76;100.00
70815;BME280;58428;49.478;10.986;2023-01-30T04:34:24;98714.03;;;0.80;100.00
70815;BME280;58428;49.478;10.986;2023-01-30T04:36:52;98714.34;;;0.84;100.00
70815;BME280;58428;49.478;10.986;2023-01-30T04:39:18;98719.13;;;0.82;100.00
70815;BME280;58428;49.478;10.986;2023-01-30T04:41:43;98706.59;;;0.77;100.00
70815;BME280;58428;49.478;10.986;2023-01-30T04:44:12;98712.69;;;0.78;100.00
70815;BME280;58428;49.478;10.986;2023-01-30T04:46:37;98706.59;;;0.82;100.00
70815;BME280;58428;49.478;10.986;2023-01-30T04:49:03;98704.72;;;0.83;100.00
70815;BME280;58428;49.478;10.986;2023-01-30T04:51:29;98709.50;;;0.81;100.00
70815;BME280;58428;49.478;10.986;2023-01-30T04:53:54;98711.44;;;0.85;100.00
70815;BME280;58428;49.478;10.986;2023-01-30T04:56:20;98709.81;;;0.84;100.00
70815;BME280;58428;49.478;10.986;2023-01-30T04:58:46;98701.75;;;0.74;100.00
70815;BME280;58428;49.478;10.986;2023-01-30T05:01:21;98690.84;;;0.76;100.00
70815;BME280;58428;49.478;10.986;2023-01-30T05:03:53;98676.75;;;0.80;100.00
70815;BME280;58428;49.478;10.986;2023-01-30T05:06:22;98662.91;;;0.78;100.00
70815;BME280;58428;49.478;10.986;2023-01-30T05:08:52;98664.25;;;0.81;100.00
70815;BME280;58428;49.478;10.986;2023-01-30T05:11:21;98675.13;;;0.74;100.00
70815;BME280;58428;49.478;10.986;2023-01-30T05:13:47;98684.41;;;0.67;100.00
70815;BME280;58428;49.478;10.986;2023-01-30T05:16:16;98670.28;;;0.67;100.00
70815;BME280;58428;49.478;10.986;2023-01-30T05:18:50;98659.66;;;0.72;100.00
70815;BME280;58428;49.478;10.986;2023-01-30T05:21:20;98664.97;;;0.72;100.00
70815;BME280;58428;49.478;10.986;2023-01-30T05:23:46;98664.78;;;0.78;100.00
70815;BME280;58428;49.478;10.986;2023-01-30T05:26:13;98653.88;;;0.84;100.00
70815;BME280;58428;49.478;10.986;2023-01-30T05:28:41;98652.31;;;0.88;100.00
70815;BME280;58428;49.478;10.986;2023-01-30T05:31:08;98656.25;;;0.81;100.00
70815;BME280;58428;49.478;10.986;2023-01-30T05:33:34;98660.28;;;0.83;100.00
70815;BME280;58428;49.478;10.986;2023-01-30T05:35:59;98660.28;;;0.83;100.00
70815;BME280;58428;49.478;10.986;2023-01-30T05:38:25;98670.91;;;0.78;100.00
70815;BME280;58428;49.478;10.986;2023-01-30T05:41:04;98662.41;;;0.81;100.00
70815;BME280;58428;49.478;10.986;2023-01-30T05:43:30;98659.50;;;0.88;100.00
70815;BME280;58428;49.478;10.986;2023-01-30T05:46:00;98666.72;;;0.92;100.00
70815;BME280;58428;49.478;10.986;2023-01-30T05:48:27;98660.06;;;0.95;100.00
70815;BME280;58428;49.478;10.986;2023-01-30T05:50:56;98659.50;;;0.93;100.00
70815;BME280;58428;49.478;10.986;2023-01-30T05:53:23;98657.94;;;0.92;100.00
70815;BME280;58428;49.478;10.986;2023-01-30T05:55:58;98647.03;;;0.93;100.00
70815;BME280;58428;49.478;10.986;2023-01-30T05:58:27;98640.91;;;0.98;100.00
70815;BME280;58428;49.478;10.986;2023-01-30T06:01:00;98626.75;;;0.92;100.00
70815;BME280;58428;49.478;10.986;2023-01-30T06:03:27;98630.22;;;0.88;100.00
70815;BME280;58428;49.478;10.986;2023-01-30T06:05:55;98621.63;;;0.81;100.00
70815;BME280;58428;49.478;10.986;2023-01-30T06:08:23;98624.53;;;0.74;100.00
70815;BME280;58428;49.478;10.986;2023-01-30T06:10:52;98628.25;;;0.69;100.00
70815;BME280;58428;49.478;10.986;2023-01-30T06:13:34;98625.31;;;0.70;100.00
70815;BME280;58428;49.478;10.986;2023-01-30T06:16:02;98625.88;;;0.72;100.00
70815;BME280;58428;49.478;10.986;2023-01-30T06:18:31;98630.66;;;0.70;100.00
70815;BME280;58428;49.478;10.986;2023-01-30T06:20:59;98630.34;;;0.67;100.00
70815;BME280;58428;49.478;10.986;2023-01-30T06:23:25;98635.97;;;0.70;100.00
70815;BME280;58428;49.478;10.986;2023-01-30T06:25:51;98635.44;;;0.68;100.00
70815;BME280;58428;49.478;10.986;2023-01-30T06:28:22;98629.03;;;0.69;100.00
70815;BME280;58428;49.478;10.986;2023-01-30T06:30:48;98619.47;;;0.68;100.00
70815;BME280;58428;49.478;10.986;2023-01-30T06:33:16;98621.59;;;0.71;100.00
70815;BME280;58428;49.478;10.986;2023-01-30T06:35:49;98620.06;;;0.80;100.00
70815;BME280;58428;49.478;10.986;2023-01-30T06:38:15;98627.25;;;0.84;100.00
70815;BME280;58428;49.478;10.986;2023-01-30T06:40:45;98636.06;;;0.90;100.00
70815;BME280;58428;49.478;10.986;2023-01-30T06:43:12;98642.44;;;0.89;100.00
70815;BME280;58428;49.478;10.986;2023-01-30T06:45:37;98649.41;;;0.95;100.00
70815;BME280;58428;49.478;10.986;2023-01-30T06:48:03;98649.72;;;1.03;100.00
70815;BME280;58428;49.478;10.986;2023-01-30T06:50:29;98647.03;;;0.93;100.00
70815;BME280;58428;49.478;10.986;2023-01-30T06:52:56;98643.53;;;0.93;100.00
70815;BME280;58428;49.478;10.986;2023-01-30T06:55:23;98630.53;;;1.01;100.00
70815;BME280;58428;49.478;10.986;2023-01-30T06:58:11;98626.53;;;1.04;100.00
70815;BME280;58428;49.478;10.986;2023-01-30T07:00:38;98632.13;;;1.02;100.00
70815;BME280;58428;49.478;10.986;2023-01-30T07:03:12;98622.56;;;1.06;100.00
70815;BME280;58428;49.478;10.986;2023-01-30T07:05:46;98615.88;;;1.04;100.00
70815;BME280;58428;49.478;10.986;2023-01-30T07:08:15;98616.44;;;1.06;100.00
70815;BME280;58428;49.478;10.986;2023-01-30T07:10:45;98616.69;;;1.04;100.00
70815;BME280;58428;49.478;10.986;2023-01-30T07:13:11;98622.03;;;1.09;100.00
70815;BME280;58428;49.478;10.986;2023-01-30T07:15:37;98612.47;;;1.13;100.00
70815;BME280;58428;49.478;10.986;2023-01-30T07:18:02;98607.16;;;1.18;100.00
70815;BME280;58428;49.478;10.986;2023-01-30T07:20:28;98596.47;;;1.13;100.00
70815;BME280;58428;49.478;10.986;2023-01-30T07:22:55;98593.81;;;1.18;100.00
70815;BME280;58428;49.478;10.986;2023-01-30T07:28:08;98595.19;;;1.20;100.00
70815;BME280;58428;49.478;10.986;2023-01-30T07:30:34;98599.66;;;1.10;100.00
70815;BME280;58428;49.478;10.986;2023-01-30T07:33:03;98592.22;;;1.07;100.00
70815;BME280;58428;49.478;10.986;2023-01-30T07:35:33;98589.53;;;1.07;100.00
70815;BME280;58428;49.478;10.986;2023-01-30T07:37:59;98584.22;;;1.07;100.00
70815;BME280;58428;49.478;10.986;2023-01-30T07:40:25;98575.16;;;1.03;100.00
70815;BME280;58428;49.478;10.986;2023-01-30T07:45:30;98573.31;;;1.18;100.00
70815;BME280;58428;49.478;10.986;2023-01-30T07:47:58;98557.38;;;1.28;100.00
70815;BME280;58428;49.478;10.986;2023-01-30T07:50:24;98549.63;;;1.37;100.00
70815;BME280;58428;49.478;10.986;2023-01-30T07:52:58;98556.59;;;1.47;100.00
70815;BME280;58428;49.478;10.986;2023-01-30T07:55:25;98548.59;;;1.52;100.00
70815;BME280;58428;49.478;10.986;2023-01-30T07:57:54;98531.28;;;1.55;100.00
70815;BME280;58428;49.478;10.986;2023-01-30T08:00:25;98539.81;;;1.57;100.00
70815;BME280;58428;49.478;10.986;2023-01-30T08:02:50;98537.94;;;1.57;100.00
70815;BME280;58428;49.478;10.986;2023-01-30T08:05:16;98519.81;;;1.54;100.00
70815;BME280;58428;49.478;10.986;2023-01-30T08:07:42;98550.75;;;1.55;100.00
70815;BME280;58428;49.478;10.986;2023-01-30T08:10:08;98526.19;;;1.58;100.00
70815;BME280;58428;49.478;10.986;2023-01-30T08:12:34;98509.97;;;1.55;100.00
70815;BME280;58428;49.478;10.986;2023-01-30T08:15:02;98502.50;;;1.57;100.00
70815;BME280;58428;49.478;10.986;2023-01-30T08:17:31;98530.22;;;1.56;100.00
70815;BME280;58428;49.478;10.986;2023-01-30T08:19:56;98532.88;;;1.56;100.00
70815;BME280;58428;49.478;10.986;2023-01-30T08:22:21;98519.28;;;1.57;100.00
70815;BME280;58428;49.478;10.986;2023-01-30T08:24:47;98519.81;;;1.64;100.00
70815;BME280;58428;49.478;10.986;2023-01-30T08:27:13;98520.06;;;1.68;100.00
70815;BME280;58428;49.478;10.986;2023-01-30T08:29:38;98511.56;;;1.71;100.00
70815;BME280;58428;49.478;10.986;2023-01-30T08:32:04;98522.22;;;1.66;100.00
70815;BME280;58428;49.478;10.986;2023-01-30T08:34:29;98509.66;;;1.66;100.00
70815;BME280;58428;49.478;10.986;2023-01-30T08:36:55;98506.75;;;1.68;100.00
70815;BME280;58428;49.478;10.986;2023-01-30T08:39:20;98507.53;;;1.68;100.00
70815;BME280;58428;49.478;10.986;2023-01-30T08:41:45;98503.28;;;1.77;100.00
70815;BME280;58428;49.478;10.986;2023-01-30T08:44:11;98498.75;;;1.73;100.00
70815;BME280;58428;49.478;10.986;2023-01-30T08:46:38;98503.00;;;1.74;100.00
70815;BME280;58428;49.478;10.986;2023-01-30T08:49:03;98503.53;;;1.66;100.00
70815;BME280;58428;49.478;10.986;2023-01-30T08:51:29;98491.28;;;1.70;100.00
70815;BME280;58428;49.478;10.986;2023-01-30T08:53:55;98488.88;;;1.58;100.00
70815;BME280;58428;49.478;10.986;2023-01-30T08:56:23;98489.13;;;1.47;100.00
70815;BME280;58428;49.478;10.986;2023-01-30T08:58:49;98484.34;;;1.39;100.00
70815;BME280;58428;49.478;10.986;2023-01-30T09:01:16;98494.75;;;1.41;100.00
70815;BME280;58428;49.478;10.986;2023-01-30T09:03:41;98502.47;;;1.32;100.00
70815;BME280;58428;49.478;10.986;2023-01-30T09:06:07;98504.59;;;1.25;100.00
70815;BME280;58428;49.478;10.986;2023-01-30T09:08:33;98519.50;;;1.21;100.00
70815;BME280;58428;49.478;10.986;2023-01-30T09:11:03;98510.72;;;1.21;100.00
70815;BME280;58428;49.478;10.986;2023-01-30T09:13:30;98503.50;;;1.21;100.00
70815;BME280;58428;49.478;10.986;2023-01-30T09:15:56;98511.78;;;1.15;100.00
70815;BME280;58428;49.478;10.986;2023-01-30T09:18:24;98512.81;;;1.04;100.00
70815;BME280;58428;49.478;10.986;2023-01-30T09:20:51;98508.53;;;1.08;100.00
70815;BME280;58428;49.478;10.986;2023-01-30T09:23:17;98499.50;;;1.09;100.00
70815;BME280;58428;49.478;10.986;2023-01-30T09:25:46;98494.97;;;1.19;100.00
70815;BME280;58428;49.478;10.986;2023-01-30T09:28:12;98491.81;;;1.22;100.00
70815;BME280;58428;49.478;10.986;2023-01-30T09:30:37;98501.41;;;1.18;100.00
70815;BME280;58428;49.478;10.986;2023-01-30T09:33:03;98494.72;;;1.21;100.00
70815;BME280;58428;49.478;10.986;2023-01-30T09:35:29;98486.47;;;1.27;100.00
70815;BME280;58428;49.478;10.986;2023-01-30T09:37:55;98482.19;;;1.21;100.00
70815;BME280;58428;49.478;10.986;2023-01-30T09:40:24;98488.06;;;1.23;100.00
70815;BME280;58428;49.478;10.986;2023-01-30T09:42:57;98488.88;;;1.34;100.00
70815;BME280;58428;49.478;10.986;2023-01-30T09:45:59;98487.28;;;1.38;100.00
70815;BME280;58428;49.478;10.986;2023-01-30T09:48:35;98494.47;;;1.32;100.00
70815;BME280;58428;49.478;10.986;2023-01-30T09:54:29;98486.50;;;1.52;100.00
70815;BME280;58428;49.478;10.986;2023-01-30T10:04:54;98479.00;;;1.83;100.00
70815;BME280;58428;49.478;10.986;2023-01-30T10:10:45;98463.25;;;1.87;100.00
70815;BME280;58428;49.478;10.986;2023-01-30T10:21:05;98449.91;;;1.97;100.00
70815;BME280;58428;49.478;10.986;2023-01-30T10:26:20;98466.94;;;2.11;100.00
70815;BME280;58428;49.478;10.986;2023-01-30T10:28:59;98472.81;;;2.13;100.00
70815;BME280;58428;49.478;10.986;2023-01-30T10:31:28;98463.78;;;2.04;100.00
70815;BME280;58428;49.478;10.986;2023-01-30T10:34:04;98457.88;;;2.07;100.00
70815;BME280;58428;49.478;10.986;2023-01-30T10:36:40;98460.81;;;2.10;100.00
70815;BME280;58428;49.478;10.986;2023-01-30T10:42:06;98449.03;;;2.21;100.00
70815;BME280;58428;49.478;10.986;2023-01-30T10:44:33;98442.66;;;2.17;100.00
70815;BME280;58428;49.478;10.986;2023-01-30T10:47:19;98447.44;;;2.25;100.00
70815;BME280;58428;49.478;10.986;2023-01-30T10:49:57;98443.09;;;2.34;100.00
70815;BME280;58428;49.478;10.986;2023-01-30T10:52:38;98449.28;;;2.34;100.00
70815;BME280;58428;49.478;10.986;2023-01-30T10:55:33;98457.53;;;2.33;100.00
70815;BME280;58428;49.478;10.986;2023-01-30T11:00:41;98467.09;;;2.44;100.00
70815;BME280;58428;49.478;10.986;2023-01-30T11:03:20;98468.66;;;2.59;100.00
70815;BME280;58428;49.478;10.986;2023-01-30T11:05:51;98450.19;;;2.63;100.00
70815;BME280;58428;49.478;10.986;2023-01-30T11:08:28;98448.34;;;2.63;100.00
70815;BME280;58428;49.478;10.986;2023-01-30T11:10:55;98445.16;;;2.61;100.00
70815;BME280;58428;49.478;10.986;2023-01-30T11:13:32;98436.63;;;2.59;100.00
70815;BME280;58428;49.478;10.986;2023-01-30T11:16:07;98439.25;;;2.64;100.00
70815;BME280;58428;49.478;10.986;2023-01-30T11:18:44;98425.88;;;2.69;100.00
70815;BME280;58428;49.478;10.986;2023-01-30T11:21:32;98437.09;;;2.71;100.00
70815;BME280;58428;49.478;10.986;2023-01-30T11:24:11;98443.53;;;2.65;100.00
70815;BME280;58428;49.478;10.986;2023-01-30T11:26:37;98431.75;;;2.66;100.00
70815;BME280;58428;49.478;10.986;2023-01-30T11:29:30;98427.47;;;2.70;100.00
70815;BME280;58428;49.478;10.986;2023-01-30T11:32:02;98432.47;;;2.82;100.00
70815;BME280;58428;49.478;10.986;2023-01-30T11:34:30;98438.31;;;2.89;100.00
70815;BME280;58428;49.478;10.986;2023-01-30T11:37:21;98430.91;;;2.81;100.00
70815;BME280;58428;49.478;10.986;2023-01-30T11:39:51;98427.69;;;2.79;100.00
70815;BME280;58428;49.478;10.986;2023-01-30T11:42:19;98437.50;;;2.88;100.00
70815;BME280;58428;49.478;10.986;2023-01-30T11:44:45;98441.19;;;2.97;100.00
70815;BME280;58428;49.478;10.986;2023-01-30T11:47:25;98438.03;;;2.90;100.00
70815;BME280;58428;49.478;10.986;2023-01-30T11:49:53;98443.63;;;2.93;100.00
70815;BME280;58428;49.478;10.986;2023-01-30T11:52:26;98437.75;;;2.96;100.00
70815;BME280;58428;49.478;10.986;2023-01-30T11:54:53;98434.03;;;2.92;100.00
70815;BME280;58428;49.478;10.986;2023-01-30T11:57:25;98422.25;;;2.93;100.00
70815;BME280;58428;49.478;10.986;2023-01-30T11:59:54;98430.25;;;2.93;100.00
70815;BME280;58428;49.478;10.986;2023-01-30T12:02:38;98441.19;;;2.97;100.00
70815;BME280;58428;49.478;10.986;2023-01-30T12:05:15;98437.97;;;3.00;100.00
70815;BME280;58428;49.478;10.986;2023-01-30T12:07:46;98440.94;;;2.93;100.00
70815;BME280;58428;49.478;10.986;2023-01-30T12:12:54;98439.56;;;3.01;100.00
70815;BME280;58428;49.478;10.986;2023-01-30T12:20:59;98434.41;;;3.14;100.00
70815;BME280;58428;49.478;10.986;2023-01-30T12:28:51;98424.91;;;2.98;100.00
70815;BME280;58428;49.478;10.986;2023-01-30T12:31:43;98418.44;;;3.04;100.00
70815;BME280;58428;49.478;10.986;2023-01-30T12:34:10;98425.69;;;2.99;100.00
70815;BME280;58428;49.478;10.986;2023-01-30T12:36:58;98425.44;;;2.95;100.00
70815;BME280;58428;49.478;10.986;2023-01-30T12:48:33;98429.59;;;3.11;100.00
70815;BME280;58428;49.478;10.986;2023-01-30T13:02:51;98430.22;;;3.36;100.00
70815;BME280;58428;49.478;10.986;2023-01-30T13:05:40;98431.75;;;3.47;100.00
70815;BME280;58428;49.478;10.986;2023-01-30T13:13:53;98418.16;;;3.72;100.00
70815;BME280;58428;49.478;10.986;2023-01-30T13:17:04;98419.69;;;3.78;100.00
70815;BME280;58428;49.478;10.986;2023-01-30T13:27:43;98430.63;;;3.81;100.00
70815;BME280;58428;49.478;10.986;2023-01-30T13:30:15;98419.69;;;3.78;100.00
70815;BME280;58428;49.478;10.986;2023-01-30T13:32:55;98437.16;;;3.70;100.00
70815;BME280;58428;49.478;10.986;2023-01-30T13:35:34;98426.03;;;3.59;100.00
70815;BME280;58428;49.478;10.986;2023-01-30T13:38:05;98439.41;;;3.59;100.00
70815;BME280;58428;49.478;10.986;2023-01-30T13:40:39;98439.06;;;3.65;100.00
70815;BME280;58428;49.478;10.986;2023-01-30T13:43:31;98441.81;;;3.60;100.00
70815;BME280;58428;49.478;10.986;2023-01-30T13:46:02;98430.78;;;3.62;100.00
70815;BME280;58428;49.478;10.986;2023-01-30T13:51:31;98456.41;;;3.67;100.00
70815;BME280;58428;49.478;10.986;2023-01-30T13:56:43;98431.53;;;3.72;100.00
70815;BME280;58428;49.478;10.986;2023-01-30T13:59:38;98422.38;;;3.78;100.00
70815;BME280;58428;49.478;10.986;2023-01-30T14:04:43;98421.84;;;3.76;100.00
70815;BME280;58428;49.478;10.986;2023-01-30T14:07:27;98411.53;;;3.65;100.00
70815;BME280;58428;49.478;10.986;2023-01-30T14:10:10;98405.19;;;3.56;100.00
70815;BME280;58428;49.478;10.986;2023-01-30T14:17:36;98400.06;;;3.59;100.00
70815;BME280;58428;49.478;10.986;2023-01-30T14:20:15;98416.13;;;3.59;100.00
70815;BME280;58428;49.478;10.986;2023-01-30T14:22:53;98424.13;;;3.64;100.00
70815;BME280;58428;49.478;10.986;2023-01-30T14:30:57;98432.03;;;3.74;100.00
70815;BME280;58428;49.478;10.986;2023-01-30T14:38:56;98448.28;;;4.10;100.00
70815;BME280;58428;49.478;10.986;2023-01-30T14:41:41;98442.44;;;4.03;100.00
70815;BME280;58428;49.478;10.986;2023-01-30T14:44:08;98459.53;;;4.07;100.00
70815;BME280;58428;49.478;10.986;2023-01-30T14:46:45;98466.41;;;4.13;100.00
70815;BME280;58428;49.478;10.986;2023-01-30T14:49:21;98486.44;;;4.21;100.00
70815;BME280;58428;49.478;10.986;2023-01-30T14:51:51;98476.75;;;4.25;100.00
70815;BME280;58428;49.478;10.986;2023-01-30T14:54:24;98474.19;;;4.15;100.00
70815;BME280;58428;49.478;10.986;2023-01-30T14:56:59;98474.06;;;3.97;100.00
70815;BME280;58428;49.478;10.986;2023-01-30T15:02:27;98455.16;;;3.88;100.00
70815;BME280;58428;49.478;10.986;2023-01-30T15:05:07;98461.47;;;3.74;100.00
70815;BME280;58428;49.478;10.986;2023-01-30T15:07:46;98467.59;;;3.79;100.00
70815;BME280;58428;49.478;10.986;2023-01-30T15:15:59;98471.84;;;3.47;100.00
70815;BME280;58428;49.478;10.986;2023-01-30T15:24:13;98492.91;;;3.59;100.00
70815;BME280;58428;49.478;10.986;2023-01-30T15:29:38;98518.00;;;3.63;100.00
70815;BME280;58428;49.478;10.986;2023-01-30T15:32:22;98516.19;;;3.58;100.00
70815;BME280;58428;49.478;10.986;2023-01-30T15:34:59;98516.47;;;3.52;100.00
70815;BME280;58428;49.478;10.986;2023-01-30T15:37:36;98523.94;;;3.55;100.00
70815;BME280;58428;49.478;10.986;2023-01-30T15:40:30;98535.44;;;3.55;100.00